Time;durP1;ratioP1;P1;durP2;ratioP2;P2;SDS_P1;SDS_P2;PMS_P1;PMS_P2;Temp;Humidity;BMP_temperature;BMP_pressure;BME280_temperature;BME280_humidity;BME280_pressure;Samples;Min_cycle;Max_cycle;Signal;HPM_P1;HPM_P2
2022/05/31 00:00:36;;;;;;;1.20;1.00;;;25.00;50.30;;;;;;5032965;28;20909;-84
2022/05/31 00:03:04;;;;;;;1.37;1.10;;;25.00;50.30;;;;;;5030840;28;20411;-84
2022/05/31 00:05:30;;;;;;;1.67;1.57;;;24.90;50.20;;;;;;5012152;28;20510;-84
2022/05/31 00:07:56;;;;;;;1.50;1.30;;;24.90;50.20;;;;;;5011974;28;20466;-84
2022/05/31 00:10:23;;;;;;;1.73;1.20;;;24.90;50.20;;;;;;5012271;28;20451;-84
2022/05/31 00:12:49;;;;;;;4.87;1.27;;;25.00;50.30;;;;;;5027772;28;20257;-84
2022/05/31 00:15:16;;;;;;;1.37;1.13;;;25.00;50.30;;;;;;5010795;28;20452;-84
2022/05/31 00:17:42;;;;;;;1.20;1.00;;;25.00;50.30;;;;;;5011936;28;20409;-84
2022/05/31 00:20:10;;;;;;;1.80;1.60;;;24.90;50.20;;;;;;5043816;28;20418;-84
2022/05/31 00:22:38;;;;;;;1.40;1.07;;;24.90;50.30;;;;;;5027067;28;20201;-83
2022/05/31 00:25:06;;;;;;;1.33;1.03;;;25.00;50.90;;;;;;5042947;28;20931;-83
2022/05/31 00:27:34;;;;;;;1.10;0.90;;;24.90;50.20;;;;;;5011802;28;20412;-84
2022/05/31 00:29:59;;;;;;;1.40;1.00;;;25.00;50.30;;;;;;5017975;28;20454;-84
2022/05/31 00:32:31;;;;;;;1.20;0.90;;;24.90;50.30;;;;;;5029910;28;20423;-84
2022/05/31 00:35:02;;;;;;;1.80;1.20;;;24.90;50.30;;;;;;5029633;28;20200;-84
2022/05/31 00:37:30;;;;;;;1.20;0.90;;;24.90;50.30;;;;;;5029504;28;20438;-84
2022/05/31 00:39:57;;;;;;;1.10;0.90;;;24.90;50.30;;;;;;5030614;28;20408;-84
2022/05/31 00:42:25;;;;;;;0.93;0.83;;;24.90;50.30;;;;;;5036403;28;20415;-84
2022/05/31 00:44:51;;;;;;;1.87;1.10;;;24.90;50.30;;;;;;5047181;28;20443;-84
2022/05/31 00:47:31;;;;;;;1.33;0.90;;;24.90;50.30;;;;;;5030843;28;20446;-84
2022/05/31 00:50:13;;;;;;;1.80;1.10;;;24.90;50.30;;;;;;5030217;28;20752;-84
2022/05/31 00:52:47;;;;;;;1.63;1.17;;;24.90;50.30;;;;;;5026973;28;20445;-84
2022/05/31 00:55:19;;;;;;;1.23;1.00;;;24.90;50.30;;;;;;5009842;28;20455;-84
2022/05/31 00:58:29;;;;;;;1.97;1.53;;;24.90;50.30;;;;;;5008947;28;20453;-84
2022/05/31 01:00:58;;;;;;;1.27;1.13;;;24.90;50.40;;;;;;5025743;28;20773;-84
2022/05/31 01:03:25;;;;;;;1.90;1.23;;;24.90;50.30;;;;;;5007822;28;20428;-83
2022/05/31 01:05:50;;;;;;;1.97;1.00;;;24.90;50.40;;;;;;5041837;28;20486;-85
2022/05/31 01:08:16;;;;;;;1.30;0.90;;;24.90;50.30;;;;;;5009303;28;20416;-85
2022/05/31 01:10:43;;;;;;;2.17;1.13;;;24.90;50.40;;;;;;5040526;28;20181;-84
2022/05/31 01:13:12;;;;;;;1.27;0.93;;;24.90;50.30;;;;;;5007435;28;20189;-85
2022/05/31 01:15:38;;;;;;;1.47;1.10;;;24.90;50.30;;;;;;5007541;28;20487;-85
2022/05/31 01:18:04;;;;;;;1.37;1.07;;;24.90;50.30;;;;;;5020492;28;20412;-88
2022/05/31 01:20:30;;;;;;;1.80;1.00;;;24.90;50.40;;;;;;5031310;28;20169;-87
2022/05/31 01:23:05;;;;;;;1.13;0.90;;;24.90;50.40;;;;;;5029372;28;20430;-87
2022/05/31 01:25:48;;;;;;;1.63;1.30;;;24.90;50.40;;;;;;5028893;28;20184;-87
2022/05/31 01:28:29;;;;;;;1.20;0.87;;;24.90;50.40;;;;;;5016095;28;20483;-87
2022/05/31 01:31:17;;;;;;;1.33;1.00;;;24.90;50.40;;;;;;5029996;28;20800;-89
2022/05/31 01:33:50;;;;;;;1.27;1.07;;;24.90;50.40;;;;;;5022622;28;20422;-88
2022/05/31 01:36:22;;;;;;;1.37;1.10;;;24.80;50.30;;;;;;5024309;28;20465;-86
2022/05/31 01:39:04;;;;;;;1.30;0.90;;;24.90;50.40;;;;;;5038938;28;20434;-86
2022/05/31 01:41:37;;;;;;;1.63;1.00;;;24.90;50.40;;;;;;5031936;28;20415;-89
2022/05/31 01:44:07;;;;;;;1.27;1.07;;;24.90;50.40;;;;;;5041591;28;20956;-89
2022/05/31 01:46:35;;;;;;;1.20;1.00;;;24.80;50.30;;;;;;5042753;28;20411;-89
2022/05/31 01:49:08;;;;;;;1.10;0.90;;;24.90;50.90;;;;;;5041560;28;20417;-89
2022/05/31 01:51:37;;;;;;;1.50;1.00;;;24.80;50.30;;;;;;5045140;28;20425;-89
2022/05/31 01:54:03;;;;;;;1.10;0.90;;;24.80;50.30;;;;;;5017720;28;20427;-89
2022/05/31 01:56:42;;;;;;;1.20;0.90;;;24.80;50.30;;;;;;5020715;28;20477;-88
2022/05/31 01:59:09;;;;;;;1.10;0.90;;;24.80;50.30;;;;;;5012390;28;20419;-89
2022/05/31 02:01:37;;;;;;;1.33;0.90;;;24.80;50.30;;;;;;5044818;28;20418;-89
2022/05/31 02:04:03;;;;;;;1.50;1.10;;;24.80;50.30;;;;;;5042772;28;20418;-89
2022/05/31 02:06:34;;;;;;;1.33;1.07;;;24.80;50.30;;;;;;5037566;28;20506;-89
2022/05/31 02:09:01;;;;;;;2.00;1.10;;;24.80;50.30;;;;;;5031710;28;20423;-89
2022/05/31 02:11:27;;;;;;;1.23;1.13;;;24.80;50.30;;;;;;5056761;28;20414;-89
2022/05/31 02:13:53;;;;;;;1.63;0.87;;;24.80;50.30;;;;;;5035299;28;20423;-89
2022/05/31 02:16:19;;;;;;;1.37;1.10;;;24.80;50.30;;;;;;5039827;28;20459;-89
2022/05/31 02:22:12;;;;;;;1.23;1.00;;;24.80;50.30;;;;;;5030346;28;20491;-89
2022/05/31 02:24:38;;;;;;;1.03;0.80;;;24.80;50.30;;;;;;5050133;28;20416;-89
2022/05/31 02:27:05;;;;;;;1.63;1.10;;;24.70;50.30;;;;;;5032615;28;20427;-88
2022/05/31 02:29:34;;;;;;;1.20;0.90;;;24.80;50.30;;;;;;5038030;28;20415;-89
2022/05/31 02:32:03;;;;;;;1.57;1.10;;;24.80;50.30;;;;;;5019750;28;20427;-89
2022/05/31 02:34:32;;;;;;;1.60;1.10;;;24.70;50.20;;;;;;5024401;28;20600;-89
2022/05/31 02:36:58;;;;;;;1.10;0.83;;;24.70;50.20;;;;;;5036062;28;20419;-89
2022/05/31 02:39:24;;;;;;;1.13;0.80;;;24.70;50.20;;;;;;5028491;28;20505;-89
2022/05/31 02:41:50;;;;;;;1.47;1.10;;;24.70;50.20;;;;;;5028551;28;20422;-86
2022/05/31 02:44:17;;;;;;;1.80;1.00;;;24.70;50.10;;;;;;5036653;28;20172;-86
2022/05/31 02:46:43;;;;;;;1.40;1.00;;;24.70;50.10;;;;;;5027514;28;20427;-86
2022/05/31 02:49:09;;;;;;;1.50;0.90;;;24.70;50.10;;;;;;5019077;28;20419;-86
2022/05/31 02:51:38;;;;;;;1.30;0.90;;;24.70;50.70;;;;;;5022885;28;20173;-86
2022/05/31 02:54:04;;;;;;;1.23;0.93;;;24.70;50.10;;;;;;5021473;28;20411;-86
2022/05/31 02:56:31;;;;;;;1.10;0.80;;;24.70;50.20;;;;;;5019760;28;20458;-86
2022/05/31 02:58:57;;;;;;;1.20;0.93;;;24.60;50.10;;;;;;5018779;28;20430;-86
2022/05/31 03:01:24;;;;;;;1.00;0.83;;;24.60;50.10;;;;;;5019854;28;20784;-85
2022/05/31 03:03:50;;;;;;;1.10;0.90;;;24.60;50.10;;;;;;5024257;28;20419;-85
2022/05/31 03:06:16;;;;;;;1.40;1.07;;;24.60;50.20;;;;;;5020347;28;20488;-86
2022/05/31 03:08:42;;;;;;;1.10;1.00;;;24.60;50.20;;;;;;5022082;28;20180;-85
2022/05/31 03:11:14;;;;;;;0.97;0.87;;;24.60;50.10;;;;;;5037131;28;20198;-85
2022/05/31 03:13:41;;;;;;;1.57;1.10;;;24.60;50.20;;;;;;5017530;28;20434;-85
2022/05/31 03:16:07;;;;;;;1.80;1.20;;;24.60;50.20;;;;;;5035085;28;20470;-85
2022/05/31 03:18:52;;;;;;;1.07;0.90;;;24.60;50.20;;;;;;5021025;28;20459;-85
2022/05/31 03:21:26;;;;;;;1.00;0.80;;;24.60;50.20;;;;;;5018264;28;20211;-85
2022/05/31 03:24:00;;;;;;;1.33;0.90;;;24.60;50.20;;;;;;5054092;28;20568;-85
2022/05/31 03:26:29;;;;;;;1.00;0.80;;;24.60;50.30;;;;;;5023131;28;20415;-85
2022/05/31 03:28:55;;;;;;;1.60;1.10;;;24.50;50.10;;;;;;5025918;28;20451;-85
2022/05/31 03:31:21;;;;;;;1.60;0.90;;;24.50;50.10;;;;;;5031963;28;20412;-86
2022/05/31 03:33:47;;;;;;;1.23;0.80;;;24.50;50.10;;;;;;5026974;28;20440;-85
2022/05/31 03:36:15;;;;;;;1.10;0.93;;;24.50;50.10;;;;;;5027790;28;20485;-85
2022/05/31 03:38:41;;;;;;;1.00;0.90;;;24.50;50.20;;;;;;5028661;28;20211;-85
2022/05/31 03:41:07;;;;;;;1.10;0.87;;;24.50;50.20;;;;;;5027348;28;20423;-85
2022/05/31 03:43:34;;;;;;;1.60;0.93;;;24.50;50.20;;;;;;5027270;28;20414;-85
2022/05/31 03:46:01;;;;;;;1.10;1.00;;;24.50;50.20;;;;;;5043382;28;20196;-85
2022/05/31 03:48:30;;;;;;;1.40;1.13;;;24.50;50.30;;;;;;5060093;28;20435;-85
2022/05/31 03:51:01;;;;;;;1.40;1.10;;;24.50;50.30;;;;;;5028716;28;20765;-85
2022/05/31 03:53:27;;;;;;;1.03;0.93;;;24.50;50.30;;;;;;5026724;28;20453;-85
2022/05/31 03:55:52;;;;;;;1.40;1.10;;;24.50;50.30;;;;;;5028033;28;20462;-85
2022/05/31 03:58:18;;;;;;;1.00;0.83;;;24.50;50.30;;;;;;5026658;28;20639;-85
2022/05/31 04:00:44;;;;;;;1.13;0.87;;;24.50;50.30;;;;;;5027345;28;20204;-85
2022/05/31 04:03:10;;;;;;;1.10;0.90;;;24.50;50.30;;;;;;5043295;28;20917;-85
2022/05/31 04:05:35;;;;;;;1.07;0.90;;;24.50;50.30;;;;;;5027759;28;20200;-85
2022/05/31 04:08:06;;;;;;;1.30;0.80;;;24.50;50.30;;;;;;5027240;28;20188;-85
2022/05/31 04:10:32;;;;;;;1.60;0.83;;;24.50;50.20;;;;;;5026821;28;20207;-85
2022/05/31 04:13:00;;;;;;;1.00;0.77;;;24.50;50.20;;;;;;5027057;28;20454;-85
2022/05/31 04:15:26;;;;;;;1.00;0.90;;;24.50;50.20;;;;;;5025287;28;20463;-85
2022/05/31 04:17:54;;;;;;;1.00;0.80;;;24.50;50.20;;;;;;5042811;28;20411;-85
2022/05/31 04:20:20;;;;;;;1.13;0.93;;;24.50;50.20;;;;;;5026850;28;20423;-86
2022/05/31 04:22:47;;;;;;;1.20;1.00;;;24.50;50.20;;;;;;5027204;28;21020;-86
2022/05/31 04:25:13;;;;;;;1.87;1.33;;;24.50;50.20;;;;;;5027643;28;20431;-85
2022/05/31 04:27:38;;;;;;;1.97;1.00;;;24.50;50.20;;;;;;5043715;28;20423;-85
2022/05/31 04:30:05;;;;;;;0.90;0.80;;;24.50;50.80;;;;;;5043512;28;20522;-85
2022/05/31 04:32:30;;;;;;;1.20;0.87;;;24.50;50.20;;;;;;5060198;28;20670;-84
2022/05/31 04:34:56;;;;;;;1.20;0.90;;;24.50;50.30;;;;;;5027291;28;20466;-85
2022/05/31 04:37:22;;;;;;;1.13;1.00;;;24.50;50.30;;;;;;5028938;28;20685;-85
2022/05/31 04:39:50;;;;;;;1.30;1.00;;;24.50;50.30;;;;;;5028113;28;20416;-84
2022/05/31 04:42:16;;;;;;;1.20;0.93;;;24.50;50.20;;;;;;5027618;28;20435;-84
2022/05/31 04:44:42;;;;;;;1.27;0.90;;;24.50;50.30;;;;;;5019212;28;20426;-86
2022/05/31 04:47:08;;;;;;;1.20;1.03;;;24.40;50.20;;;;;;5044316;28;20192;-84
2022/05/31 04:49:35;;;;;;;0.90;0.80;;;24.50;50.30;;;;;;5028682;28;20450;-84
2022/05/31 04:52:01;;;;;;;1.93;1.27;;;24.50;50.30;;;;;;5042111;28;20215;-83
2022/05/31 04:54:30;;;;;;;1.60;1.37;;;24.50;50.30;;;;;;5025024;28;20675;-85
2022/05/31 04:56:59;;;;;;;1.30;0.93;;;24.50;50.20;;;;;;5026598;28;20180;-85
2022/05/31 04:59:26;;;;;;;4.43;2.27;;;24.50;50.20;;;;;;5021769;28;20440;-85
2022/05/31 05:01:52;;;;;;;1.43;0.80;;;24.50;50.20;;;;;;5025337;28;20439;-85
2022/05/31 05:04:18;;;;;;;2.90;0.90;;;24.50;50.30;;;;;;5027004;28;20411;-85
2022/05/31 05:06:43;;;;;;;1.77;1.30;;;24.50;50.30;;;;;;5035978;28;20192;-85
2022/05/31 05:09:09;;;;;;;1.10;0.80;;;24.50;50.30;;;;;;5029356;28;20180;-86
2022/05/31 05:11:35;;;;;;;1.30;1.10;;;24.50;50.30;;;;;;5027859;28;20238;-84
2022/05/31 05:14:01;;;;;;;1.47;0.90;;;24.50;50.30;;;;;;5027650;28;20252;-85
2022/05/31 05:16:28;;;;;;;1.07;0.73;;;24.50;50.30;;;;;;5024780;28;20219;-85
2022/05/31 05:18:55;;;;;;;1.47;1.00;;;24.50;50.30;;;;;;5026666;28;20264;-85
2022/05/31 05:21:20;;;;;;;2.40;1.20;;;24.50;50.30;;;;;;5045545;28;20522;-85
2022/05/31 05:23:46;;;;;;;1.30;1.10;;;24.50;50.30;;;;;;5028067;28;20416;-85
2022/05/31 05:26:13;;;;;;;1.70;1.00;;;24.50;50.30;;;;;;5028076;28;20179;-85
2022/05/31 05:31:27;;;;;;;1.57;0.97;;;24.60;50.30;;;;;;5012077;28;20435;-84
2022/05/31 05:33:55;;;;;;;1.27;0.97;;;24.60;50.30;;;;;;5007920;28;20416;-85
2022/05/31 05:36:22;;;;;;;1.23;0.80;;;24.60;50.30;;;;;;5024626;28;20524;-84
2022/05/31 05:38:48;;;;;;;1.10;0.90;;;24.60;50.30;;;;;;5009341;28;20416;-84
2022/05/31 05:41:14;;;;;;;0.97;0.80;;;24.60;50.30;;;;;;5007461;28;20917;-85
2022/05/31 05:43:40;;;;;;;0.93;0.70;;;24.60;50.30;;;;;;5008266;28;20483;-84
2022/05/31 05:46:24;;;;;;;1.20;0.90;;;24.60;50.20;;;;;;5005979;28;20423;-84
2022/05/31 05:48:51;;;;;;;1.33;0.90;;;24.60;50.20;;;;;;5006688;28;20419;-85
2022/05/31 05:51:27;;;;;;;1.10;1.00;;;24.60;50.20;;;;;;5021172;28;20755;-84
2022/05/31 05:53:53;;;;;;;1.83;1.00;;;24.60;50.20;;;;;;5006900;28;20416;-85
2022/05/31 05:56:20;;;;;;;1.13;1.00;;;24.60;50.20;;;;;;5006395;28;20483;-84
2022/05/31 05:58:47;;;;;;;0.97;0.73;;;24.60;50.20;;;;;;5005979;28;20409;-84
2022/05/31 06:01:45;;;;;;;1.30;1.00;;;24.60;50.20;;;;;;5021759;28;20427;-85
2022/05/31 06:04:20;;;;;;;1.20;0.90;;;24.60;50.20;;;;;;5018327;28;20507;-85
2022/05/31 06:06:46;;;;;;;1.40;1.10;;;24.60;50.30;;;;;;5041689;28;20375;-85
2022/05/31 06:09:18;;;;;;;2.33;0.80;;;24.60;50.30;;;;;;5025572;28;20412;-85
2022/05/31 06:11:44;;;;;;;1.23;0.90;;;24.60;50.30;;;;;;5028364;28;20416;-84
2022/05/31 06:14:19;;;;;;;1.10;0.90;;;24.60;50.30;;;;;;5029066;28;20415;-87
2022/05/31 06:16:50;;;;;;;1.37;1.00;;;24.60;50.30;;;;;;5028300;28;20172;-87
2022/05/31 06:19:19;;;;;;;1.10;0.90;;;24.60;50.90;;;;;;5011590;28;20420;-87
2022/05/31 06:21:48;;;;;;;1.13;0.93;;;24.60;50.30;;;;;;5028829;28;20515;-87
2022/05/31 06:24:15;;;;;;;2.13;1.00;;;24.60;50.30;;;;;;5027833;28;20407;-88
2022/05/31 06:26:41;;;;;;;1.20;0.80;;;24.60;50.30;;;;;;5028537;28;20426;-87
2022/05/31 06:29:07;;;;;;;1.73;1.00;;;24.60;50.30;;;;;;5029095;28;20419;-87
2022/05/31 06:31:33;;;;;;;1.00;0.80;;;24.60;50.30;;;;;;5028411;28;20176;-87
2022/05/31 06:33:59;;;;;;;2.60;0.90;;;24.60;50.30;;;;;;5029179;28;20485;-87
2022/05/31 06:36:24;;;;;;;1.43;1.00;;;24.60;50.30;;;;;;5025222;28;20255;-88
2022/05/31 06:38:53;;;;;;;1.27;0.80;;;24.60;50.30;;;;;;5025050;28;20173;-87
2022/05/31 06:41:19;;;;;;;1.10;0.90;;;24.60;50.30;;;;;;5022336;28;20173;-85
2022/05/31 06:43:50;;;;;;;1.10;0.80;;;24.60;50.30;;;;;;5021513;28;20948;-87
2022/05/31 06:46:19;;;;;;;1.13;0.80;;;24.60;50.30;;;;;;5009937;28;20428;-87
2022/05/31 06:48:49;;;;;;;1.83;1.13;;;24.60;50.20;;;;;;5029412;28;20438;-87
2022/05/31 06:56:48;;;;;;;1.10;0.90;;;24.60;50.20;;;;;;5030014;28;20513;-87
2022/05/31 06:56:59;;;;;;;1.40;0.87;;;24.60;50.20;;;;;;5029778;28;20431;-86
2022/05/31 06:59:25;;;;;;;1.03;0.80;;;24.60;50.20;;;;;;5029095;28;20426;-86
2022/05/31 07:01:53;;;;;;;0.90;0.67;;;24.60;50.30;;;;;;5029271;28;20407;-87
2022/05/31 07:04:19;;;;;;;2.20;1.20;;;24.60;50.30;;;;;;5030489;28;20406;-87
2022/05/31 07:06:45;;;;;;;1.10;0.80;;;24.60;50.30;;;;;;5045592;28;20470;-86
2022/05/31 07:09:12;;;;;;;1.20;0.90;;;24.60;50.30;;;;;;5030626;28;20407;-86
2022/05/31 07:11:38;;;;;;;1.20;0.90;;;24.60;50.30;;;;;;5030252;28;20177;-86
2022/05/31 07:14:04;;;;;;;1.50;1.00;;;24.60;50.30;;;;;;5030105;28;20423;-87
2022/05/31 07:20:09;;;;;;;0.97;0.80;;;24.70;50.40;;;;;;5039738;28;20491;-87
2022/05/31 07:22:39;;;;;;;1.00;0.80;;;24.60;50.30;;;;;;5065462;28;20466;-87
2022/05/31 07:25:06;;;;;;;1.00;0.80;;;24.60;50.30;;;;;;5049811;28;20414;-87
2022/05/31 07:27:33;;;;;;;1.10;0.80;;;24.60;50.90;;;;;;5049528;28;20750;-87
2022/05/31 07:30:00;;;;;;;1.50;0.87;;;24.60;50.30;;;;;;5030473;28;20450;-87
2022/05/31 07:32:27;;;;;;;1.83;1.20;;;24.60;50.30;;;;;;5028408;28;20422;-87
2022/05/31 07:34:54;;;;;;;2.10;1.10;;;24.60;50.30;;;;;;5027985;28;20466;-87
2022/05/31 07:37:20;;;;;;;1.23;0.97;;;24.70;50.40;;;;;;5011909;28;20439;-87
2022/05/31 07:39:48;;;;;;;2.10;0.97;;;24.70;50.40;;;;;;5036232;28;20433;-87
2022/05/31 07:42:15;;;;;;;1.10;0.80;;;24.70;50.40;;;;;;5029381;28;20199;-87
2022/05/31 07:44:41;;;;;;;1.20;0.90;;;24.70;50.40;;;;;;5029362;28;20411;-87
2022/05/31 07:47:07;;;;;;;1.00;0.83;;;24.70;50.40;;;;;;5029118;28;20407;-87
2022/05/31 07:49:32;;;;;;;2.00;0.90;;;24.60;50.30;;;;;;5028843;28;20160;-87
2022/05/31 07:51:58;;;;;;;1.30;0.80;;;24.70;50.40;;;;;;5044715;28;20506;-87
2022/05/31 07:54:24;;;;;;;1.63;0.90;;;24.70;50.40;;;;;;5028438;28;20180;-87
2022/05/31 07:56:50;;;;;;;1.27;0.80;;;24.70;50.40;;;;;;5028347;28;20180;-87
2022/05/31 07:59:16;;;;;;;1.40;1.03;;;24.70;50.40;;;;;;5012229;28;20853;-87
2022/05/31 08:01:41;;;;;;;1.10;1.00;;;24.70;50.40;;;;;;5029342;28;20175;-87
2022/05/31 08:04:07;;;;;;;1.20;0.80;;;24.60;50.30;;;;;;5028596;28;20176;-87
2022/05/31 08:06:34;;;;;;;1.07;0.93;;;24.70;50.40;;;;;;5027685;28;20231;-87
2022/05/31 08:09:31;;;;;;;1.00;0.90;;;24.70;50.40;;;;;;5037246;28;20419;-87
2022/05/31 08:11:57;;;;;;;0.90;0.80;;;24.70;50.40;;;;;;5035612;28;20436;-87
2022/05/31 08:14:23;;;;;;;1.50;1.00;;;24.60;50.30;;;;;;5020939;28;20486;-87
2022/05/31 08:16:52;;;;;;;1.20;1.00;;;24.60;50.30;;;;;;5031506;28;20461;-87
2022/05/31 08:19:17;;;;;;;1.10;0.80;;;24.60;50.30;;;;;;5031652;28;20211;-87
2022/05/31 08:21:43;;;;;;;1.20;0.90;;;24.60;50.40;;;;;;5051613;28;20455;-87
2022/05/31 08:24:09;;;;;;;1.13;0.80;;;24.60;50.30;;;;;;5027815;28;20199;-87
2022/05/31 08:26:35;;;;;;;1.37;0.87;;;24.60;50.40;;;;;;5029420;28;20176;-87
2022/05/31 08:29:01;;;;;;;1.30;0.90;;;24.60;50.90;;;;;;5021182;28;20669;-87
2022/05/31 08:31:31;;;;;;;1.13;0.83;;;24.60;50.30;;;;;;5041485;28;20188;-87
2022/05/31 08:33:57;;;;;;;2.57;1.00;;;24.60;50.90;;;;;;5041217;28;20204;-87
2022/05/31 08:36:23;;;;;;;1.10;0.83;;;24.60;50.30;;;;;;5046358;28;20462;-87
2022/05/31 08:38:50;;;;;;;1.60;0.90;;;24.60;50.40;;;;;;5027143;28;20180;-88
2022/05/31 08:41:25;;;;;;;1.00;0.90;;;24.60;50.40;;;;;;5036312;28;20439;-88
2022/05/31 08:44:07;;;;;;;1.20;0.90;;;24.60;50.40;;;;;;5023118;28;20416;-87
2022/05/31 08:46:38;;;;;;;1.33;0.90;;;24.60;50.40;;;;;;5012605;28;20436;-87
2022/05/31 08:49:13;;;;;;;1.40;0.80;;;24.60;50.40;;;;;;5028282;28;20803;-87
2022/05/31 08:52:04;;;;;;;1.63;0.90;;;24.60;50.40;;;;;;5011019;28;20410;-87
2022/05/31 08:57:35;;;;;;;1.47;0.97;;;24.60;50.40;;;;;;5023451;28;20410;-87
2022/05/31 09:00:11;;;;;;;1.00;0.90;;;24.60;50.40;;;;;;5033116;28;21013;-87
2022/05/31 09:03:42;;;;;;;0.90;0.70;;;24.60;50.40;;;;;;5024014;28;20437;-87
2022/05/31 09:06:12;;;;;;;1.10;0.90;;;24.60;50.40;;;;;;4896751;29;20430;-87
2022/05/31 09:08:46;;;;;;;1.10;0.90;;;24.60;50.50;;;;;;4907723;29;20432;-87
2022/05/31 09:11:28;;;;;;;1.37;0.93;;;24.60;50.50;;;;;;4892415;29;20826;-87
2022/05/31 09:14:20;;;;;;;1.93;0.80;;;24.60;50.50;;;;;;4903562;29;20436;-87
2022/05/31 09:17:11;;;;;;;1.20;0.80;;;24.60;50.50;;;;;;4908291;29;20419;-87
2022/05/31 09:19:44;;;;;;;1.20;0.90;;;24.60;50.40;;;;;;4877940;29;20477;-87
2022/05/31 09:22:10;;;;;;;1.50;1.00;;;24.60;50.40;;;;;;4863198;29;20485;-87
2022/05/31 09:24:44;;;;;;;1.33;0.90;;;24.60;50.50;;;;;;4890066;29;20895;-87
2022/05/31 09:27:20;;;;;;;1.10;0.80;;;24.60;50.50;;;;;;4908134;29;20425;-87
2022/05/31 09:29:45;;;;;;;1.13;0.80;;;24.60;50.50;;;;;;4897480;29;20413;-87
2022/05/31 09:32:38;;;;;;;1.40;0.90;;;24.60;50.40;;;;;;4896757;29;20417;-87
2022/05/31 09:35:37;;;;;;;1.00;0.80;;;24.60;50.40;;;;;;4880918;29;20247;-87
2022/05/31 09:38:15;;;;;;;1.80;0.80;;;24.60;50.40;;;;;;4987880;28;20534;-87
2022/05/31 09:40:50;;;;;;;1.50;0.80;;;24.50;50.40;;;;;;4975256;28;20417;-87
2022/05/31 09:43:30;;;;;;;1.07;0.77;;;24.50;50.40;;;;;;5043693;28;20422;-87
2022/05/31 09:46:02;;;;;;;1.00;0.80;;;24.60;50.50;;;;;;5064186;28;20651;-87
2022/05/31 09:48:28;;;;;;;1.97;0.90;;;24.60;50.50;;;;;;5065238;28;20443;-87
2022/05/31 09:51:21;;;;;;;1.20;0.80;;;24.60;50.50;;;;;;5063708;28;20429;-87
2022/05/31 09:59:24;;;;;;;1.30;0.90;;;24.60;50.60;;;;;;5057967;28;20411;-87
2022/05/31 10:01:51;;;;;;;1.87;0.90;;;24.60;50.60;;;;;;5029851;28;20947;-87
2022/05/31 10:04:30;;;;;;;1.30;0.90;;;24.50;50.50;;;;;;5031160;28;20454;-87
2022/05/31 10:06:59;;;;;;;1.10;0.80;;;24.50;50.50;;;;;;5046965;28;20400;-88
2022/05/31 10:09:34;;;;;;;2.03;0.80;;;24.50;50.50;;;;;;5030575;28;20441;-87
2022/05/31 10:12:35;;;;;;;1.10;0.80;;;24.60;50.60;;;;;;5030558;28;20423;-87
2022/05/31 10:15:03;;;;;;;1.20;0.90;;;24.60;50.60;;;;;;5027536;28;20518;-87
2022/05/31 10:17:44;;;;;;;1.00;0.70;;;24.50;50.50;;;;;;5012393;28;20408;-87
2022/05/31 10:20:16;;;;;;;1.00;0.90;;;24.60;50.60;;;;;;5027208;28;20416;-88
2022/05/31 10:23:02;;;;;;;1.10;0.83;;;24.60;50.60;;;;;;5027152;28;20464;-87
2022/05/31 10:25:35;;;;;;;1.10;0.80;;;24.60;50.60;;;;;;5026829;28;20487;-87
2022/05/31 10:28:04;;;;;;;1.97;0.87;;;24.60;50.60;;;;;;5027284;28;20412;-87
2022/05/31 10:30:35;;;;;;;2.10;0.87;;;24.60;50.60;;;;;;5011907;28;20416;-87
2022/05/31 10:33:18;;;;;;;1.00;0.80;;;24.60;50.60;;;;;;5033913;28;20478;-87
2022/05/31 10:35:46;;;;;;;2.60;1.10;;;24.60;50.60;;;;;;5030033;28;20535;-87
2022/05/31 10:38:24;;;;;;;1.97;1.07;;;24.60;50.60;;;;;;5031795;28;20419;-87
2022/05/31 10:41:03;;;;;;;1.40;1.00;;;24.60;50.60;;;;;;5030781;28;20414;-87
2022/05/31 10:43:45;;;;;;;1.27;0.90;;;24.60;50.60;;;;;;5030049;28;20407;-87
2022/05/31 10:46:30;;;;;;;2.07;1.10;;;24.60;50.60;;;;;;5031399;28;20422;-87
2022/05/31 10:49:02;;;;;;;1.47;1.10;;;24.60;50.60;;;;;;5030447;28;20439;-88
2022/05/31 10:52:00;;;;;;;1.57;1.17;;;24.60;50.60;;;;;;5030146;28;20431;-88
2022/05/31 10:54:54;;;;;;;1.23;1.00;;;24.60;50.60;;;;;;5030193;28;20470;-87
2022/05/31 10:57:51;;;;;;;1.97;1.10;;;24.60;50.60;;;;;;4989082;28;20443;-87
2022/05/31 11:00:40;;;;;;;1.40;1.03;;;24.60;51.20;;;;;;5026080;28;20428;-87
2022/05/31 11:03:27;;;;;;;1.33;0.93;;;24.60;50.70;;;;;;5011474;28;20480;-86
2022/05/31 11:06:14;;;;;;;1.93;1.23;;;24.60;50.70;;;;;;5011799;28;20465;-87
2022/05/31 11:12:08;;;;;;;1.57;1.47;;;24.50;50.60;;;;;;5010945;28;20918;-88
2022/05/31 11:14:56;;;;;;;1.50;1.10;;;24.50;51.20;;;;;;5025042;28;20487;-87
2022/05/31 11:17:32;;;;;;;2.20;1.30;;;24.60;50.70;;;;;;5048618;28;20495;-87
2022/05/31 11:20:23;;;;;;;1.73;1.07;;;24.50;50.70;;;;;;5029397;28;20486;-88
2022/05/31 11:23:11;;;;;;;1.70;1.20;;;24.50;50.70;;;;;;5028868;28;20450;-87
2022/05/31 11:26:17;;;;;;;1.53;1.13;;;24.60;50.80;;;;;;5052602;28;20416;-87
2022/05/31 11:29:14;;;;;;;1.47;1.10;;;24.60;50.80;;;;;;5025227;28;20435;-87
2022/05/31 11:32:01;;;;;;;2.50;1.00;;;24.60;50.80;;;;;;5009561;28;20411;-87
2022/05/31 11:34:48;;;;;;;1.33;1.13;;;24.50;50.70;;;;;;5008828;28;20476;-88
2022/05/31 11:37:56;;;;;;;1.57;1.10;;;24.60;50.80;;;;;;5009202;28;20404;-88
2022/05/31 11:40:58;;;;;;;1.40;1.00;;;24.60;50.80;;;;;;4985313;28;20413;-87
2022/05/31 11:44:01;;;;;;;1.30;1.03;;;24.60;50.80;;;;;;5024112;28;20761;-87
2022/05/31 11:46:35;;;;;;;3.53;1.20;;;24.50;50.80;;;;;;5060944;28;20502;-88
2022/05/31 11:49:04;;;;;;;1.40;0.90;;;24.50;50.80;;;;;;5028833;28;20427;-88
2022/05/31 11:52:08;;;;;;;2.17;1.00;;;24.50;50.80;;;;;;5032168;28;20411;-88
2022/05/31 11:54:43;;;;;;;1.40;1.20;;;24.60;50.80;;;;;;5064450;28;20415;-89
2022/05/31 11:57:11;;;;;;;1.97;1.20;;;24.50;50.80;;;;;;5063124;28;20421;-89
2022/05/31 11:59:44;;;;;;;1.17;0.97;;;24.50;50.80;;;;;;5063223;28;20427;-89
2022/05/31 12:02:39;;;;;;;1.33;1.23;;;24.60;50.80;;;;;;5011349;28;20396;-88
2022/05/31 12:05:14;;;;;;;1.30;0.93;;;24.60;50.80;;;;;;5011490;28;20404;-87
2022/05/31 12:07:47;;;;;;;1.50;1.00;;;24.50;50.80;;;;;;5011001;28;20435;-87
2022/05/31 12:10:34;;;;;;;1.50;1.20;;;24.50;50.80;;;;;;5011979;28;20399;-86
2022/05/31 12:13:07;;;;;;;1.90;1.17;;;24.60;50.80;;;;;;5011387;28;20396;-86
2022/05/31 12:15:36;;;;;;;1.20;0.80;;;24.60;50.80;;;;;;5011096;28;20463;-87
2022/05/31 12:18:39;;;;;;;3.17;1.00;;;24.50;50.80;;;;;;5026879;28;20416;-87
2022/05/31 12:21:23;;;;;;;1.13;1.00;;;24.60;50.80;;;;;;5010076;28;20426;-87
2022/05/31 12:23:59;;;;;;;2.10;1.37;;;24.50;50.80;;;;;;5011019;28;20504;-86
2022/05/31 12:27:04;;;;;;;2.53;1.47;;;24.50;50.80;;;;;;5011372;28;20455;-85
2022/05/31 12:29:54;;;;;;;1.43;1.10;;;24.50;50.80;;;;;;5010472;28;20416;-85
2022/05/31 12:32:31;;;;;;;1.50;1.27;;;24.50;50.80;;;;;;5009756;28;20404;-85
2022/05/31 12:35:02;;;;;;;1.17;1.00;;;24.50;50.80;;;;;;5010680;28;20487;-86
2022/05/31 12:37:50;;;;;;;2.47;1.40;;;24.50;50.80;;;;;;4991919;28;20424;-87
2022/05/31 12:40:22;;;;;;;1.10;0.90;;;24.50;50.80;;;;;;4998881;28;20427;-86
2022/05/31 12:42:50;;;;;;;1.20;1.00;;;24.50;50.80;;;;;;5009328;28;20419;-86
2022/05/31 12:45:25;;;;;;;2.17;1.10;;;24.50;50.80;;;;;;5007445;28;20957;-86
2022/05/31 12:47:58;;;;;;;2.60;1.10;;;24.50;50.80;;;;;;5008034;28;20813;-85
2022/05/31 12:50:45;;;;;;;3.50;1.57;;;24.50;50.80;;;;;;5007244;28;20511;-86
2022/05/31 12:53:23;;;;;;;1.47;1.17;;;24.50;50.80;;;;;;5008286;28;20415;-84
2022/05/31 12:55:56;;;;;;;1.50;1.10;;;24.50;50.80;;;;;;5019059;28;20463;-88
2022/05/31 12:58:44;;;;;;;1.60;1.03;;;24.50;50.80;;;;;;5030655;28;20408;-88
2022/05/31 13:01:15;;;;;;;1.30;1.10;;;24.50;50.80;;;;;;5030239;28;21103;-88
2022/05/31 13:03:50;;;;;;;4.47;1.30;;;24.50;50.80;;;;;;5031334;28;20439;-88
2022/05/31 13:09:45;;;;;;;1.87;1.17;;;24.50;50.80;;;;;;5032816;28;20383;-88
2022/05/31 13:20:59;;;;;;;2.07;1.40;;;24.50;50.90;;;;;;5030894;28;20399;-88
2022/05/31 13:23:35;;;;;;;2.33;1.30;;;24.50;50.90;;;;;;5029109;28;20574;-88
2022/05/31 13:26:27;;;;;;;2.00;1.30;;;24.50;50.90;;;;;;5030780;28;20395;-88
2022/05/31 13:29:06;;;;;;;2.93;1.20;;;24.50;50.80;;;;;;5030283;28;20422;-88
2022/05/31 13:31:35;;;;;;;1.60;1.30;;;24.50;50.80;;;;;;5029238;28;20766;-88
2022/05/31 13:34:04;;;;;;;1.50;1.13;;;24.50;50.90;;;;;;5029110;28;20498;-88
2022/05/31 13:36:43;;;;;;;5.33;1.57;;;24.50;50.80;;;;;;5030400;28;20455;-88
2022/05/31 13:39:16;;;;;;;1.70;1.10;;;24.50;50.80;;;;;;5029072;28;20419;-88
2022/05/31 13:41:49;;;;;;;2.47;1.30;;;24.50;50.80;;;;;;5030380;28;20396;-88
2022/05/31 13:44:24;;;;;;;3.77;1.27;;;24.50;50.80;;;;;;5030828;28;20765;-88
2022/05/31 13:46:51;;;;;;;4.37;1.40;;;24.50;50.80;;;;;;5029094;28;20483;-88
2022/05/31 13:49:31;;;;;;;2.50;1.50;;;24.40;50.80;;;;;;5029219;28;20415;-87
2022/05/31 13:52:04;;;;;;;2.23;1.47;;;24.50;50.90;;;;;;5030653;28;20388;-88